Time;durP1;ratioP1;P1;durP2;ratioP2;P2;SDS_P1;SDS_P2;PMS_P1;PMS_P2;Temp;Humidity;BMP_temperature;BMP_pressure;BME280_temperature;BME280_humidity;BME280_pressure;Samples;Min_cycle;Max_cycle;Signal;HPM_P1;HPM_P2
2022/09/26 00:01:34;;;;;;;26.68;21.27;;;;;;;9.22;77.33;100449.56;1692155;83;21106;-89
2022/09/26 00:04:05;;;;;;;24.92;20.65;;;;;;;9.26;77.21;100442.22;1700677;83;21024;-85
2022/09/26 00:06:47;;;;;;;30.08;21.70;;;;;;;9.27;77.04;100439.63;1711196;83;21081;-90
2022/09/26 00:09:17;;;;;;;31.52;21.60;;;;;;;9.29;76.98;100436.62;1704919;82;21766;-90
2022/09/26 00:11:46;;;;;;;25.55;21.50;;;;;;;9.31;76.97;100434.91;1740630;81;21051;-89
2022/09/26 00:14:20;;;;;;;25.70;20.43;;;;;;;9.32;76.90;100430.54;1719719;82;21050;-89
2022/09/26 00:16:48;;;;;;;24.20;20.88;;;;;;;9.29;76.76;100432.67;1732477;82;21015;-85
2022/09/26 00:19:14;;;;;;;28.40;20.88;;;;;;;9.24;76.69;100424.22;1739989;81;21150;-85
2022/09/26 00:21:41;;;;;;;30.12;21.68;;;;;;;9.22;76.72;100418.05;1740638;81;21777;-88
2022/09/26 00:24:08;;;;;;;28.17;20.62;;;;;;;9.15;76.58;100423.12;1751166;81;21750;-89
2022/09/26 00:26:35;;;;;;;28.35;22.15;;;;;;;9.10;76.63;100416.89;1744941;81;21104;-84
2022/09/26 00:29:06;;;;;;;26.80;19.85;;;;;;;9.04;76.64;100423.70;1745682;81;21621;-85
2022/09/26 00:31:43;;;;;;;20.30;18.17;;;;;;;8.95;76.69;100417.38;1743649;81;21043;-88
2022/09/26 00:34:16;;;;;;;24.37;18.17;;;;;;;8.93;76.79;100423.02;1673833;85;21769;-88
2022/09/26 00:36:46;;;;;;;24.98;17.37;;;;;;;8.89;76.92;100417.19;1692921;84;21628;-89
2022/09/26 00:39:15;;;;;;;25.23;19.20;;;;;;;8.92;77.06;100412.47;1702045;83;21671;-89
2022/09/26 00:41:41;;;;;;;22.98;17.75;;;;;;;8.92;77.10;100406.78;1714499;81;21615;-84
2022/09/26 00:44:48;;;;;;;27.87;18.98;;;;;;;8.96;77.15;100402.50;1709379;83;21038;-89
2022/09/26 00:47:32;;;;;;;23.60;18.48;;;;;;;9.01;77.13;100397.36;1722709;82;21752;-84
2022/09/26 00:50:12;;;;;;;24.72;18.73;;;;;;;9.08;77.21;100394.05;1727173;81;21076;-88
2022/09/26 00:52:45;;;;;;;26.07;18.37;;;;;;;9.12;77.21;100397.20;1677254;84;21052;-89
2022/09/26 00:55:16;;;;;;;26.65;19.25;;;;;;;9.19;77.20;100395.64;1695525;83;21063;-83
2022/09/26 00:57:52;;;;;;;21.77;17.52;;;;;;;9.21;77.08;100391.30;1687871;83;21059;-83
2022/09/26 01:00:19;;;;;;;31.02;19.52;;;;;;;9.23;77.05;100390.91;1700921;84;21922;-89
2022/09/26 01:02:46;;;;;;;26.10;18.62;;;;;;;9.26;77.01;100393.19;1675364;84;21056;-85
2022/09/26 01:05:15;;;;;;;23.80;18.48;;;;;;;9.29;76.97;100391.05;1678410;84;21635;-89
2022/09/26 01:07:43;;;;;;;21.93;17.37;;;;;;;9.29;76.93;100389.74;1666686;84;21647;-88
2022/09/26 01:10:11;;;;;;;22.32;18.67;;;;;;;9.31;76.93;100395.95;1650317;86;21123;-87
2022/09/26 01:12:37;;;;;;;30.02;18.77;;;;;;;9.31;76.93;100381.50;1730527;82;21752;-84
2022/09/26 01:15:07;;;;;;;28.77;18.40;;;;;;;9.32;76.88;100381.95;1695474;83;21662;-83
2022/09/26 01:17:39;;;;;;;24.50;18.80;;;;;;;9.35;77.01;100379.41;1708353;82;21043;-84
2022/09/26 01:20:26;;;;;;;22.02;17.82;;;;;;;9.39;77.00;100381.25;1721277;82;21059;-83
2022/09/26 01:23:25;;;;;;;25.00;18.52;;;;;;;9.42;77.03;100373.86;1744812;81;21054;-89
2022/09/26 01:26:31;;;;;;;26.25;18.57;;;;;;;9.45;76.95;100373.50;1731846;82;22554;-85
2022/09/26 01:29:15;;;;;;;25.00;19.12;;;;;;;9.42;76.92;100363.34;1722234;81;21118;-85
2022/09/26 01:35:12;;;;;;;28.55;21.40;;;;;;;9.48;77.04;100366.14;1720134;82;21082;-88
2022/09/26 01:38:18;;;;;;;30.60;22.93;;;;;;;9.53;77.15;100365.80;1718312;82;21047;-84
2022/09/26 01:41:31;;;;;;;26.70;21.77;;;;;;;9.58;77.19;100362.86;1724380;82;21812;-87
2022/09/26 01:44:33;;;;;;;30.50;22.58;;;;;;;9.62;77.20;100359.44;1731439;82;21028;-88
2022/09/26 01:47:28;;;;;;;24.50;21.48;;;;;;;9.68;77.12;100358.69;1627322;86;21729;-88
2022/09/26 01:50:34;;;;;;;29.30;22.77;;;;;;;9.67;77.02;100355.62;1604415;87;21094;-88
2022/09/26 01:53:05;;;;;;;28.00;22.30;;;;;;;9.68;77.03;100353.44;1584581;89;21354;-84
2022/09/26 01:55:39;;;;;;;29.10;23.92;;;;;;;9.71;77.10;100349.57;1586582;88;21832;-89
2022/09/26 01:58:26;;;;;;;26.57;23.50;;;;;;;9.76;77.20;100344.00;1625217;87;22047;-88
2022/09/26 02:00:53;;;;;;;28.80;23.18;;;;;;;9.81;77.23;100341.45;1595621;87;21210;-88
2022/09/26 02:03:22;;;;;;;33.85;24.77;;;;;;;9.86;77.23;100343.77;1617510;86;21136;-85
2022/09/26 02:05:58;;;;;;;26.68;22.75;;;;;;;9.92;77.26;100346.52;1636460;86;21086;-85
2022/09/26 02:08:40;;;;;;;29.95;22.85;;;;;;;9.98;77.26;100337.42;1635546;87;22638;-89
2022/09/26 02:11:15;;;;;;;26.73;22.62;;;;;;;10.01;77.09;100330.93;1627734;87;22634;-85
2022/09/26 02:14:08;;;;;;;24.80;21.55;;;;;;;10.02;77.08;100330.49;1637517;86;21104;-85
2022/09/26 02:16:42;;;;;;;29.55;22.45;;;;;;;10.06;77.15;100333.64;1629321;86;21466;-89
2022/09/26 02:19:21;;;;;;;25.90;21.15;;;;;;;10.10;77.07;100335.50;1629302;88;21126;-89
2022/09/26 02:22:41;;;;;;;27.37;22.20;;;;;;;10.13;77.16;100332.91;1704575;82;21860;-88
2022/09/26 02:25:09;;;;;;;27.15;22.52;;;;;;;10.16;77.01;100331.67;1740508;82;21063;-84
2022/09/26 02:27:39;;;;;;;26.25;21.23;;;;;;;10.16;76.98;100318.95;1724869;80;21036;-86
2022/09/26 02:30:07;;;;;;;30.35;22.80;;;;;;;10.14;77.01;100321.55;1730429;80;21056;-89
2022/09/26 02:32:51;;;;;;;25.05;20.77;;;;;;;10.16;77.08;100318.52;1740325;82;21489;-89
2022/09/26 02:38:06;;;;;;;28.00;21.10;;;;;;;10.18;77.08;100316.80;1717537;82;20556;-88
2022/09/26 02:40:44;;;;;;;26.17;21.25;;;;;;;10.17;77.09;100316.33;1725615;82;21540;-88
2022/09/26 02:43:44;;;;;;;23.50;20.35;;;;;;;10.21;77.18;100317.28;1636894;84;21154;-84
2022/09/26 02:46:25;;;;;;;24.75;20.45;;;;;;;10.24;77.21;100319.55;1635104;86;21105;-84
2022/09/26 02:49:27;;;;;;;27.00;19.92;;;;;;;10.26;77.18;100322.20;1663787;85;21821;-83
2022/09/26 02:52:39;;;;;;;24.95;19.92;;;;;;;10.27;77.17;100320.05;1738369;82;21039;-85
2022/09/26 02:55:39;;;;;;;24.02;20.45;;;;;;;10.28;77.20;100313.48;1716805;82;21179;-84
2022/09/26 02:58:23;;;;;;;26.85;20.15;;;;;;;10.30;77.18;100314.45;1708256;82;21095;-84
2022/09/26 03:01:00;;;;;;;23.27;20.70;;;;;;;10.31;77.20;100312.70;1733697;81;21026;-88
2022/09/26 03:03:34;;;;;;;22.58;20.15;;;;;;;10.34;77.27;100297.39;1746293;82;21763;-88
2022/09/26 03:06:02;;;;;;;27.15;20.52;;;;;;;10.41;77.33;100299.28;1707792;82;21554;-88
2022/09/26 03:08:32;;;;;;;24.65;20.43;;;;;;;10.43;77.24;100302.39;1728290;82;21055;-88
2022/09/26 03:11:01;;;;;;;24.70;20.23;;;;;;;10.47;77.29;100305.97;1746215;82;21067;-84
2022/09/26 03:13:28;;;;;;;24.60;20.50;;;;;;;10.48;77.29;100299.42;1700262;83;21077;-88
2022/09/26 03:15:56;;;;;;;27.35;23.62;;;;;;;10.52;77.27;100292.47;1742567;81;21584;-88
2022/09/26 03:18:27;;;;;;;27.25;24.30;;;;;;;10.53;77.18;100290.72;1683165;84;21071;-88
2022/09/26 03:20:55;;;;;;;35.13;25.37;;;;;;;10.51;77.09;100286.77;1675526;85;21126;-87
2022/09/26 03:23:25;;;;;;;29.40;23.00;;;;;;;10.46;77.00;100280.09;1686860;84;21032;-87
2022/09/26 03:26:06;;;;;;;27.07;22.13;;;;;;;10.45;77.09;100276.98;1694262;83;21051;-82
2022/09/26 03:28:34;;;;;;;30.25;22.07;;;;;;;10.45;77.12;100274.80;1702351;84;22566;-82
2022/09/26 03:31:01;;;;;;;25.65;22.10;;;;;;;10.45;77.13;100270.85;1738534;81;21099;-88
2022/09/26 03:33:27;;;;;;;24.47;21.35;;;;;;;10.44;77.18;100267.78;1719908;82;21082;-88
2022/09/26 03:35:54;;;;;;;25.92;21.68;;;;;;;10.46;77.22;100272.20;1720789;81;21057;-88
2022/09/26 03:38:21;;;;;;;24.57;21.27;;;;;;;10.45;77.15;100271.73;1716398;83;21072;-88
2022/09/26 03:40:57;;;;;;;28.77;21.12;;;;;;;10.43;77.12;100270.81;1716355;83;22414;-89
2022/09/26 03:43:35;;;;;;;22.25;19.87;;;;;;;10.42;77.10;100269.50;1703985;81;21108;-90
2022/09/26 03:46:04;;;;;;;25.50;21.20;;;;;;;10.42;77.18;100269.06;1746482;81;21127;-88
2022/09/26 03:48:32;;;;;;;26.00;21.75;;;;;;;10.45;77.28;100256.38;1724856;82;21125;-88
2022/09/26 03:51:04;;;;;;;28.45;21.10;;;;;;;10.43;77.14;100255.03;1735018;82;21825;-88
2022/09/26 03:53:33;;;;;;;29.18;22.02;;;;;;;10.42;77.17;100253.71;1745791;82;22062;-87
2022/09/26 03:56:09;;;;;;;27.40;22.30;;;;;;;10.40;77.11;100246.20;1734373;82;21598;-84
2022/09/26 03:58:35;;;;;;;27.77;23.10;;;;;;;10.34;77.08;100240.83;1707233;82;21094;-85
2022/09/26 04:01:06;;;;;;;25.25;22.50;;;;;;;10.31;77.14;100233.78;1739289;81;21082;-84
2022/09/26 04:03:36;;;;;;;27.55;22.15;;;;;;;10.30;77.21;100237.22;1732440;82;21054;-92
2022/09/26 04:06:04;;;;;;;25.50;22.35;;;;;;;10.30;77.25;100243.43;1740818;82;21765;-85
2022/09/26 04:08:31;;;;;;;25.82;23.02;;;;;;;10.27;77.13;100235.44;1730730;81;21161;-89
2022/09/26 04:11:02;;;;;;;28.00;23.70;;;;;;;10.25;77.23;100238.91;1729064;82;21545;-90
2022/09/26 04:13:29;;;;;;;27.15;22.87;;;;;;;10.26;77.32;100239.34;1737913;82;21162;-82
2022/09/26 04:15:57;;;;;;;27.37;23.35;;;;;;;10.27;77.36;100237.19;1735186;82;21039;-89
2022/09/26 04:18:24;;;;;;;26.45;22.45;;;;;;;10.30;77.41;100236.85;1721320;82;22689;-90
2022/09/26 04:21:01;;;;;;;32.60;22.65;;;;;;;10.33;77.38;100233.81;1727501;82;21063;-82
2022/09/26 04:23:30;;;;;;;27.48;22.10;;;;;;;10.34;77.42;100231.62;1663015;85;21142;-82
2022/09/26 04:26:06;;;;;;;25.35;22.65;;;;;;;10.39;77.47;100233.91;1670188;85;21656;-85
2022/09/26 04:28:34;;;;;;;28.87;22.15;;;;;;;10.39;77.39;100236.55;1672807;85;21506;-85
2022/09/26 04:31:01;;;;;;;28.23;22.70;;;;;;;10.38;77.34;100233.04;1712194;83;21814;-84
2022/09/26 04:33:29;;;;;;;31.65;24.85;;;;;;;10.39;77.31;100229.97;1690029;83;21091;-89
2022/09/26 04:36:03;;;;;;;28.27;23.40;;;;;;;10.40;77.32;100236.98;1652372;85;21055;-92
2022/09/26 04:38:36;;;;;;;27.50;24.57;;;;;;;10.40;77.27;100233.95;1674661;85;21175;-86
2022/09/26 04:41:14;;;;;;;30.48;23.67;;;;;;;10.40;77.28;100238.30;1680477;84;21076;-83
2022/09/26 04:43:41;;;;;;;27.00;24.07;;;;;;;10.42;77.30;100242.75;1699881;84;21803;-85
2022/09/26 04:46:10;;;;;;;27.13;23.98;;;;;;;10.44;77.32;100230.94;1699433;84;21020;-84
2022/09/26 04:48:37;;;;;;;27.00;24.05;;;;;;;10.44;77.26;100233.58;1680015;84;21060;-84
2022/09/26 04:51:06;;;;;;;28.05;23.98;;;;;;;10.43;77.32;100235.73;1680369;84;21469;-84
2022/09/26 04:53:34;;;;;;;30.55;25.27;;;;;;;10.44;77.36;100234.89;1691627;83;21596;-84
2022/09/26 04:56:22;;;;;;;30.62;23.85;;;;;;;10.46;77.38;100241.06;1670121;85;22530;-88
2022/09/26 04:58:49;;;;;;;32.10;24.47;;;;;;;10.48;77.36;100234.95;1690514;84;21289;-87
2022/09/26 05:01:18;;;;;;;31.17;25.20;;;;;;;10.50;77.42;100239.81;1686981;84;21075;-85
2022/09/26 05:03:45;;;;;;;29.67;24.45;;;;;;;10.53;77.41;100236.36;1671595;84;21147;-83
2022/09/26 05:06:12;;;;;;;28.90;25.27;;;;;;;10.55;77.40;100232.02;1648893;85;21083;-85
2022/09/26 05:08:40;;;;;;;34.92;26.87;;;;;;;10.56;77.35;100232.45;1705489;81;21744;-84
2022/09/26 05:11:07;;;;;;;31.02;23.80;;;;;;;10.59;77.44;100229.00;1749662;81;21416;-82
2022/09/26 05:13:34;;;;;;;30.08;24.60;;;;;;;10.61;77.46;100221.58;1730686;81;21062;-83
2022/09/26 05:16:01;;;;;;;29.50;24.37;;;;;;;10.66;77.49;100216.37;1721608;82;21082;-84
2022/09/26 05:18:28;;;;;;;29.25;22.80;;;;;;;10.68;77.52;100219.94;1718708;82;21070;-84
2022/09/26 05:20:57;;;;;;;26.87;23.83;;;;;;;10.71;77.52;100216.02;1715133;83;22555;-87
2022/09/26 05:26:27;;;;;;;29.48;25.00;;;;;;;10.81;77.65;100217.95;1716261;81;21738;-86
2022/09/26 05:29:44;;;;;;;28.02;25.02;;;;;;;10.85;77.64;100215.81;1682185;83;21074;-93
2022/09/26 05:32:12;;;;;;;29.48;24.85;;;;;;;10.88;77.57;100214.97;1716912;83;21050;-93
2022/09/26 05:34:39;;;;;;;29.55;23.83;;;;;;;10.92;77.74;100210.63;1717364;83;21789;-90
2022/09/26 05:37:07;;;;;;;30.17;25.50;;;;;;;10.99;77.82;100216.45;1687098;83;21023;-93
2022/09/26 05:43:02;;;;;;;36.90;25.90;;;;;;;11.01;77.71;100206.82;1716848;82;21028;-84
2022/09/26 05:45:30;;;;;;;32.70;26.48;;;;;;;11.08;77.80;100202.10;1685731;84;21040;-84
2022/09/26 05:47:57;;;;;;;32.93;26.25;;;;;;;11.17;77.80;100198.72;1744634;82;22586;-85
2022/09/26 05:50:24;;;;;;;28.17;25.17;;;;;;;11.24;77.72;100197.91;1736763;82;21058;-84
2022/09/26 05:52:51;;;;;;;29.60;23.60;;;;;;;11.31;77.68;100198.89;1716394;82;21551;-84
2022/09/26 05:55:17;;;;;;;27.48;24.20;;;;;;;11.38;77.63;100198.98;1742539;81;21039;-84
2022/09/26 05:57:57;;;;;;;29.42;23.70;;;;;;;11.45;77.64;100194.70;1744342;81;21109;-85
2022/09/26 06:00:26;;;;;;;28.67;24.52;;;;;;;11.55;77.65;100191.73;1742681;82;21783;-85
2022/09/26 06:03:02;;;;;;;26.77;23.47;;;;;;;11.64;77.49;100195.80;1730917;81;21573;-84
2022/09/26 06:05:32;;;;;;;27.45;24.63;;;;;;;11.71;77.34;100193.66;1683484;85;21609;-84
2022/09/26 06:08:00;;;;;;;29.18;25.88;;;;;;;11.72;77.28;100179.63;1744778;81;21070;-84
2022/09/26 06:10:27;;;;;;;27.98;24.12;;;;;;;11.88;77.21;100184.64;1740496;80;21532;-92
2022/09/26 06:12:54;;;;;;;26.90;23.18;;;;;;;11.97;77.14;100183.88;1691182;84;22412;-84
2022/09/26 06:15:21;;;;;;;26.48;23.40;;;;;;;12.08;77.00;100183.98;1733396;82;21027;-93
2022/09/26 06:21:18;;;;;;;28.10;22.22;;;;;;;12.28;76.84;100192.97;1746057;82;21078;-84
2022/09/26 06:23:45;;;;;;;24.82;21.20;;;;;;;12.41;76.74;100180.33;1754230;81;21302;-84
2022/09/26 06:26:16;;;;;;;26.52;22.65;;;;;;;12.53;76.64;100179.53;1754274;81;21694;-84
2022/09/26 06:29:20;;;;;;;29.52;23.30;;;;;;;12.66;76.44;100179.64;1716393;83;20991;-93
2022/09/26 06:31:49;;;;;;;26.82;22.85;;;;;;;12.79;76.33;100176.21;1716541;83;21058;-84
2022/09/26 06:34:19;;;;;;;26.48;23.20;;;;;;;12.90;75.94;100173.20;1715092;82;21123;-92
2022/09/26 06:41:42;;;;;;;28.32;22.60;;;;;;;13.18;76.03;100172.92;1716985;83;21725;-92
2022/09/26 06:45:15;;;;;;;26.07;21.75;;;;;;;13.63;75.94;100177.52;1712713;83;21047;-93
2022/09/26 06:47:42;;;;;;;28.57;20.52;;;;;;;14.05;75.60;100185.15;1708248;84;21067;-84
2022/09/26 06:50:43;;;;;;;24.92;20.35;;;;;;;14.34;74.95;100170.59;1715856;82;21117;-92
2022/09/26 06:53:11;;;;;;;22.50;19.98;;;;;;;14.49;74.58;100166.66;1688415;82;21043;-84
2022/09/26 06:55:38;;;;;;;26.50;20.20;;;;;;;14.65;74.07;100166.67;1724265;82;21786;-93
2022/09/26 06:58:04;;;;;;;25.50;21.12;;;;;;;14.72;73.74;100167.98;1706824;84;21048;-84
2022/09/26 07:00:34;;;;;;;26.75;20.17;;;;;;;14.79;73.41;100175.49;1757399;81;21088;-93
2022/09/26 07:03:01;;;;;;;23.60;19.90;;;;;;;14.84;73.12;100172.82;1737016;81;21088;-92
2022/09/26 07:05:28;;;;;;;24.43;20.48;;;;;;;14.87;72.85;100179.00;1679993;84;21067;-93
2022/09/26 07:07:57;;;;;;;22.40;19.98;;;;;;;14.87;72.53;100189.59;1702194;84;21808;-93
2022/09/26 07:10:24;;;;;;;22.52;20.08;;;;;;;14.84;72.24;100196.22;1673780;84;21069;-85
2022/09/26 07:12:56;;;;;;;24.75;21.37;;;;;;;14.79;71.83;100198.02;1681408;83;21051;-93
2022/09/26 07:15:30;;;;;;;25.97;21.30;;;;;;;14.74;71.89;100203.30;1640892;85;21059;-92
2022/09/26 07:18:01;;;;;;;24.65;20.27;;;;;;;14.77;71.89;100197.10;1653693;85;21087;-84
2022/09/26 07:20:38;;;;;;;23.20;19.85;;;;;;;14.80;72.05;100191.81;1642953;87;21518;-92
2022/09/26 07:23:09;;;;;;;26.93;21.42;;;;;;;14.92;71.99;100183.86;1663344;85;21047;-84
2022/09/26 07:26:06;;;;;;;26.45;19.52;;;;;;;15.06;72.00;100177.64;1692776;83;21064;-92
2022/09/26 07:28:34;;;;;;;27.07;20.60;;;;;;;15.18;71.66;100180.69;1701519;84;21590;-84
2022/09/26 07:31:56;;;;;;;25.48;21.33;;;;;;;15.31;71.43;100174.00;1680961;83;21079;-92
2022/09/26 07:34:23;;;;;;;22.62;20.23;;;;;;;15.42;71.31;100167.80;1586445;89;21990;-92
2022/09/26 07:36:58;;;;;;;23.10;19.10;;;;;;;15.48;70.92;100162.00;1588369;88;21084;-92
2022/09/26 07:39:25;;;;;;;21.70;18.45;;;;;;;15.53;70.78;100161.55;1585871;89;21178;-84
2022/09/26 07:42:02;;;;;;;22.82;19.05;;;;;;;15.59;70.61;100163.28;1587293;88;21147;-92
2022/09/26 07:44:29;;;;;;;20.92;16.73;;;;;;;15.64;70.32;100165.48;1584975;88;21725;-84
2022/09/26 07:52:30;;;;;;;20.00;17.10;;;;;;;15.83;70.00;100163.64;1584421;89;21327;-84
2022/09/26 07:54:57;;;;;;;20.37;17.75;;;;;;;15.94;69.67;100157.81;1592478;89;21143;-84
2022/09/26 07:57:48;;;;;;;19.80;17.50;;;;;;;15.99;69.34;100164.44;1592544;89;21154;-84
2022/09/26 08:00:16;;;;;;;20.90;17.57;;;;;;;16.05;69.10;100166.17;1569593;88;22426;-84
2022/09/26 08:02:45;;;;;;;24.65;17.50;;;;;;;16.12;69.14;100171.42;1568868;89;21091;-84
2022/09/26 08:05:18;;;;;;;19.75;17.55;;;;;;;16.21;68.98;100169.13;1562676;91;21143;-84
2022/09/26 08:07:46;;;;;;;22.05;16.90;;;;;;;16.24;68.71;100162.94;1591650;89;21143;-84
2022/09/26 08:10:22;;;;;;;22.10;17.65;;;;;;;16.22;68.65;100163.39;1606856;87;21111;-92
2022/09/26 08:16:38;;;;;;;20.97;18.30;;;;;;;16.27;68.37;100171.77;1716600;83;21177;-85
2022/09/26 08:19:03;;;;;;;21.80;18.55;;;;;;;16.23;68.26;100164.69;1694491;82;21112;-84
2022/09/26 08:21:30;;;;;;;21.85;18.70;;;;;;;16.25;68.26;100166.88;1715107;83;21032;-84
2022/09/26 08:23:57;;;;;;;20.68;17.95;;;;;;;16.29;68.24;100165.08;1646884;86;21112;-84
2022/09/26 08:26:24;;;;;;;20.50;18.05;;;;;;;16.31;68.12;100164.20;1654344;84;21791;-84
2022/09/26 08:28:51;;;;;;;23.73;18.80;;;;;;;16.34;68.03;100167.27;1674549;85;21087;-93
2022/09/26 08:31:17;;;;;;;22.35;18.25;;;;;;;16.32;67.81;100165.94;1675071;85;21070;-92
2022/09/26 08:33:47;;;;;;;20.82;18.35;;;;;;;16.27;67.69;100167.78;1675404;85;21071;-84
2022/09/26 08:36:15;;;;;;;21.02;18.80;;;;;;;16.23;67.64;100171.33;1675040;85;21586;-84
2022/09/26 08:39:08;;;;;;;23.00;18.65;;;;;;;16.20;67.64;100167.38;1726209;83;21768;-91
2022/09/26 08:42:30;;;;;;;22.48;18.45;;;;;;;16.14;67.51;100166.08;1726236;82;21052;-92
2022/09/26 08:48:57;;;;;;;24.65;19.50;;;;;;;16.03;67.63;100163.94;1726209;82;21100;-92
2022/09/26 08:52:20;;;;;;;21.82;19.17;;;;;;;16.04;67.70;100167.92;1593143;88;21106;-92
2022/09/26 08:54:47;;;;;;;24.57;20.40;;;;;;;16.06;67.69;100164.80;1576807;90;22605;-92
2022/09/26 08:57:56;;;;;;;22.20;19.52;;;;;;;16.18;67.97;100167.84;1571323;89;21123;-84
2022/09/26 09:00:33;;;;;;;21.12;17.70;;;;;;;16.35;68.01;100165.06;1462680;96;21163;-84
2022/09/26 09:03:27;;;;;;;23.80;18.15;;;;;;;16.50;67.84;100160.06;1476026;96;21167;-84
2022/09/26 09:06:04;;;;;;;23.52;20.43;;;;;;;16.65;67.79;100163.03;1467847;95;21145;-93
2022/09/26 09:08:49;;;;;;;21.17;17.73;;;;;;;16.86;67.62;100153.54;1468432;95;22828;-84
2022/09/26 09:11:24;;;;;;;;;;;;;;;17.09;67.56;100157.73;1474403;95;21116;-92
2022/09/26 09:14:33;;;;;;;19.27;17.15;;;;;;;17.35;67.25;100148.57;1467856;97;20794;-92
2022/09/26 09:17:46;;;;;;;20.68;17.07;;;;;;;17.59;67.18;100150.91;1471671;96;21116;-92
2022/09/26 09:20:54;;;;;;;19.42;17.37;;;;;;;17.81;66.70;100154.16;1470287;96;21174;-84
2022/09/26 09:23:47;;;;;;;18.67;16.55;;;;;;;18.02;66.31;100149.00;1451933;97;22656;-85
2022/09/26 09:26:25;;;;;;;17.40;14.73;;;;;;;18.15;66.10;100144.37;1515669;93;21197;-84
2022/09/26 09:29:15;;;;;;;19.35;15.83;;;;;;;18.22;66.00;100152.66;1531754;93;21686;-93
2022/09/26 09:31:42;;;;;;;17.82;15.60;;;;;;;18.24;65.82;100146.89;1498617;93;21148;-84
2022/09/26 09:34:14;;;;;;;18.73;16.62;;;;;;;18.32;65.73;100144.09;1529681;93;21596;-84
2022/09/26 09:36:57;;;;;;;19.25;14.47;;;;;;;18.36;65.61;100147.59;1520898;92;22668;-85
2022/09/26 09:39:35;;;;;;;15.43;13.83;;;;;;;18.39;65.54;100143.52;1608478;87;21592;-93
2022/09/26 09:43:04;;;;;;;17.23;14.55;;;;;;;18.46;65.35;100143.39;1616034;88;21073;-92
2022/09/26 09:45:46;;;;;;;17.07;13.10;;;;;;;18.53;65.29;100151.30;1604505;87;21971;-84
2022/09/26 09:48:13;;;;;;;16.27;14.58;;;;;;;18.67;65.27;100155.05;1618640;87;21071;-84
2022/09/26 09:50:45;;;;;;;15.32;13.38;;;;;;;18.82;65.06;100145.46;1623120;86;21762;-92
2022/09/26 09:53:48;;;;;;;15.68;12.98;;;;;;;18.97;65.08;100147.83;1628205;87;21103;-92
2022/09/26 09:57:01;;;;;;;15.93;12.25;;;;;;;19.13;64.75;100147.09;1588152;89;21643;-84
2022/09/26 09:59:52;;;;;;;13.75;12.07;;;;;;;19.30;64.35;100150.75;1591172;89;21672;-84
2022/09/26 10:02:52;;;;;;;15.48;11.48;;;;;;;19.46;64.08;100149.09;1512940;90;21116;-84
2022/09/26 10:05:43;;;;;;;14.70;10.18;;;;;;;19.72;63.93;100151.20;1572705;90;21860;-84
2022/09/26 10:08:21;;;;;;;11.22;9.40;;;;;;;20.02;63.94;100147.45;1559726;89;21106;-85
2022/09/26 10:11:21;;;;;;;8.00;7.20;;;;;;;20.25;63.43;100133.05;1575860;90;21098;-85
2022/09/26 10:14:03;;;;;;;8.65;7.50;;;;;;;20.59;61.27;100138.45;1575990;90;21108;-93
2022/09/26 10:16:30;;;;;;;8.33;6.37;;;;;;;20.59;61.27;100138.45;1569434;91;21104;-84
2022/09/26 10:19:15;;;;;;;7.90;5.90;;;;;;;20.61;61.13;100146.47;1572174;91;22653;-84
2022/09/26 10:21:52;;;;;;;7.03;5.85;;;;;;;20.68;60.59;100143.16;1560849;89;21143;-92
2022/09/26 10:24:24;;;;;;;5.47;4.97;;;;;;;20.65;60.10;100145.46;1587927;89;21188;-92
2022/09/26 10:26:51;;;;;;;6.97;5.53;;;;;;;20.64;59.86;100136.14;1579521;89;21085;-93
2022/09/26 10:29:34;;;;;;;6.75;5.65;;;;;;;20.61;59.27;100144.23;1565475;91;21136;-84
2022/09/26 10:31:59;;;;;;;8.20;5.87;;;;;;;20.55;59.15;100140.78;1572152;90;22610;-87
2022/09/26 10:34:37;;;;;;;7.65;5.42;;;;;;;20.47;59.08;100141.89;1587083;90;21095;-93
2022/09/26 10:37:23;;;;;;;6.95;5.60;;;;;;;20.35;58.61;100140.41;1554164;90;21256;-91
2022/09/26 10:42:45;;;;;;;7.92;5.78;;;;;;;20.20;58.41;100145.67;1648406;86;21623;-86
2022/09/26 10:45:25;;;;;;;6.85;6.15;;;;;;;20.17;58.35;100145.73;1671742;85;21804;-93
2022/09/26 10:47:50;;;;;;;6.90;5.65;;;;;;;20.01;58.33;100118.53;1675718;85;21259;-86
2022/09/26 10:51:02;;;;;;;7.85;5.80;;;;;;;20.01;58.33;100118.53;1644959;85;21078;-94
2022/09/26 10:54:10;;;;;;;7.25;6.33;;;;;;;20.18;58.38;100140.83;1647822;86;21549;-93
2022/09/26 10:56:49;;;;;;;8.20;7.40;;;;;;;20.17;58.16;100120.35;1615797;88;21151;-93
2022/09/26 10:59:17;;;;;;;8.38;6.58;;;;;;;20.36;57.81;100135.47;1597770;89;21917;-85
2022/09/26 11:01:50;;;;;;;7.65;6.45;;;;;;;20.41;57.70;100144.27;1651339;84;21443;-85
2022/09/26 11:07:28;;;;;;;9.35;6.40;;;;;;;20.52;57.17;100151.55;1678927;84;21363;-93
2022/09/26 11:09:58;;;;;;;7.53;6.10;;;;;;;20.52;56.81;100142.66;1676877;85;21056;-93
2022/09/26 11:12:28;;;;;;;8.10;5.70;;;;;;;20.44;56.78;100147.30;1673884;84;21809;-85
2022/09/26 11:15:07;;;;;;;9.63;6.05;;;;;;;20.42;56.58;100141.13;1658914;85;21075;-84
2022/09/26 11:17:49;;;;;;;8.90;6.15;;;;;;;20.36;56.35;100141.72;1679148;85;21099;-85
2022/09/26 11:20:28;;;;;;;7.45;6.30;;;;;;;20.23;56.55;100128.68;1650912;84;21657;-85
2022/09/26 11:23:12;;;;;;;7.30;5.90;;;;;;;20.27;56.34;100137.03;1672735;85;21041;-94
2022/09/26 11:26:10;;;;;;;7.10;6.40;;;;;;;20.04;56.19;100126.91;1654337;85;21935;-93
2022/09/26 11:28:50;;;;;;;7.28;6.58;;;;;;;20.09;56.16;100147.27;1658609;85;21929;-92
2022/09/26 11:31:39;;;;;;;9.23;6.22;;;;;;;19.88;55.95;100150.45;1662135;85;21113;-93
2022/09/26 11:34:15;;;;;;;8.13;5.72;;;;;;;19.88;55.95;100150.45;1649135;87;21082;-92
2022/09/26 11:37:18;;;;;;;7.75;5.15;;;;;;;19.92;55.89;100149.46;1659530;85;21637;-92
2022/09/26 11:40:28;;;;;;;8.28;5.65;;;;;;;19.93;55.67;100140.52;1674328;85;22669;-84
2022/09/26 11:47:02;;;;;;;8.30;5.92;;;;;;;19.88;55.48;100147.31;1674981;84;21059;-84
2022/09/26 11:50:11;;;;;;;7.58;5.62;;;;;;;19.84;54.99;100143.39;1675648;85;21609;-84
2022/09/26 11:52:52;;;;;;;7.97;5.45;;;;;;;19.69;54.80;100137.48;1676301;85;21177;-85
2022/09/26 11:56:00;;;;;;;6.72;5.05;;;;;;;19.65;54.64;100139.77;1687654;83;21924;-84
2022/09/26 11:58:38;;;;;;;7.42;5.28;;;;;;;19.47;54.13;100134.86;1710257;83;21058;-92
2022/09/26 12:01:23;;;;;;;7.95;4.97;;;;;;;19.47;54.13;100134.86;1710034;83;21663;-84
2022/09/26 12:03:54;;;;;;;;;;;;;;;19.36;54.28;100136.41;1712678;83;21093;-84
2022/09/26 12:06:32;;;;;;;6.08;4.90;;;;;;;19.28;54.15;100135.23;1707773;83;20582;-85
2022/09/26 12:12:47;;;;;;;9.40;5.87;;;;;;;19.55;54.07;100123.55;1684275;83;21115;-85
2022/09/26 12:15:25;;;;;;;6.33;4.87;;;;;;;19.55;54.07;100123.55;1710028;83;21097;-84
2022/09/26 12:18:14;;;;;;;7.40;4.92;;;;;;;19.77;53.73;100120.84;1713464;83;21078;-84
2022/09/26 12:21:05;;;;;;;5.10;4.60;;;;;;;19.77;53.73;100120.84;1700277;83;21555;-84
2022/09/26 12:23:56;;;;;;;5.37;4.50;;;;;;;20.02;53.69;100139.44;1709259;83;21814;-85
2022/09/26 12:26:43;;;;;;;7.70;5.58;;;;;;;20.08;53.43;100141.95;1713679;83;21055;-91
2022/09/26 12:29:38;;;;;;;8.25;4.58;;;;;;;20.07;53.23;100144.22;1652678;85;21055;-94
2022/09/26 12:32:40;;;;;;;7.20;4.17;;;;;;;19.85;52.83;100141.16;1647978;85;21551;-84
2022/09/26 12:35:28;;;;;;;5.75;4.47;;;;;;;19.73;52.65;100132.98;1670550;85;21768;-83
2022/09/26 12:38:33;;;;;;;7.50;5.00;;;;;;;19.73;52.65;100132.98;1688009;83;21848;-84
2022/09/26 12:41:37;;;;;;;5.72;4.53;;;;;;;19.72;52.57;100133.41;1722752;83;21581;-84
2022/09/26 12:44:30;;;;;;;5.92;5.05;;;;;;;19.65;52.43;100134.89;1665934;84;21548;-92
2022/09/26 12:47:47;;;;;;;6.22;4.55;;;;;;;19.56;52.56;100137.33;1680201;85;21047;-93
2022/09/26 12:51:20;;;;;;;7.85;4.40;;;;;;;19.58;52.67;100132.83;1674291;85;21080;-92
2022/09/26 12:54:00;;;;;;;7.00;5.22;;;;;;;19.57;52.60;100132.39;1690063;83;21903;-84